Time;durP1;ratioP1;P1;durP2;ratioP2;P2;SDS_P1;SDS_P2;PMS_P1;PMS_P2;Temp;Humidity;BMP_temperature;BMP_pressure;BME280_temperature;BME280_humidity;BME280_pressure;Samples;Min_cycle;Max_cycle;Signal;HPM_P1;HPM_P2
2023/06/27 00:00:41;;;;;;;;;;;;;;;32.60;24.88;97653.31;5050318;28;20277;-87
2023/06/27 00:03:08;;;;;;;;;;;;;;;32.30;25.15;97652.69;5043867;28;19942;-88
2023/06/27 00:05:35;;;;;;;;;;;;;;;32.33;25.14;97656.59;5046803;28;19931;-87
2023/06/27 00:08:01;;;;;;;;;;;;;;;32.51;24.53;97654.22;5045899;28;19925;-88
2023/06/27 00:10:27;;;;;;;;;;;;;;;32.20;25.47;97665.53;5052342;28;19921;-87
2023/06/27 00:12:53;;;;;;;;;;;;;;;32.01;26.24;97687.00;5046975;28;20403;-88
2023/06/27 00:15:19;;;;;;;;;;;;;;;28.98;30.20;97748.56;5049558;28;19987;-90
2023/06/27 00:17:45;;;;;;;;;;;;;;;30.18;29.27;97714.34;5045309;28;20325;-88
2023/06/27 00:20:12;;;;;;;;;;;;;;;31.04;27.63;97740.47;5049686;28;20015;-89
2023/06/27 00:22:40;;;;;;;;;;;;;;;30.78;27.66;97735.34;5042965;28;20301;-88
2023/06/27 00:25:09;;;;;;;;;;;;;;;30.52;29.15;97714.53;5051037;28;19933;-87
2023/06/27 00:27:36;;;;;;;;;;;;;;;31.06;29.34;97766.28;5047947;28;19978;-84
2023/06/27 00:30:02;;;;;;;;;;;;;;;30.74;30.11;97756.63;5041699;28;19921;-84
2023/06/27 00:32:28;;;;;;;;;;;;;;;31.42;30.09;97755.31;5047491;28;19924;-86
2023/06/27 00:34:54;;;;;;;;;;;;;;;32.07;29.23;97768.16;5048258;28;19924;-86
2023/06/27 00:37:20;;;;;;;;;;;;;;;32.36;28.91;97778.59;5050610;28;19921;-85
2023/06/27 00:39:46;;;;;;;;;;;;;;;32.27;28.69;97787.28;5048953;28;19925;-85
2023/06/27 00:42:12;;;;;;;;;;;;;;;32.05;29.33;97807.63;5045614;28;19921;-84
2023/06/27 00:44:38;;;;;;;;;;;;;;;32.26;29.70;97822.63;5047237;28;19929;-84
2023/06/27 00:47:05;;;;;;;;;;;;;;;32.25;29.41;97814.63;5049131;28;19921;-84
2023/06/27 00:49:31;;;;;;;;;;;;;;;32.35;29.80;97807.53;5049624;28;20012;-83
2023/06/27 00:51:57;;;;;;;;;;;;;;;32.23;30.17;97820.03;5048017;28;19956;-83
2023/06/27 00:54:23;;;;;;;;;;;;;;;32.68;29.62;97822.16;5051065;28;19929;-83
2023/06/27 00:56:53;;;;;;;;;;;;;;;32.95;28.96;97826.59;5049016;28;20300;-83
2023/06/27 00:59:19;;;;;;;;;;;;;;;33.13;29.02;97838.47;5042361;28;19927;-82
2023/06/27 01:01:45;;;;;;;;;;;;;;;33.14;28.94;97834.31;5045665;28;19924;-82
2023/06/27 01:04:12;;;;;;;;;;;;;;;32.88;29.90;97824.19;5043095;28;20304;-82
2023/06/27 01:07:00;;;;;;;;;;;;;;;32.68;30.20;97819.31;5048202;28;19924;-83
2023/06/27 01:09:45;;;;;;;;;;;;;;;32.51;30.12;97804.88;5049443;28;19924;-84
2023/06/27 01:12:18;;;;;;;;;;;;;;;31.80;31.56;97802.59;5045642;28;19929;-83
2023/06/27 01:14:46;;;;;;;;;;;;;;;31.47;31.62;97789.94;5039341;28;19932;-82
2023/06/27 01:17:13;;;;;;;;;;;;;;;31.37;32.02;97809.88;5047221;28;19929;-82
2023/06/27 01:19:44;;;;;;;;;;;;;;;31.85;31.14;97826.66;5051096;28;19989;-82
2023/06/27 01:22:13;;;;;;;;;;;;;;;32.14;30.93;97825.84;5040411;28;19929;-83
2023/06/27 01:24:39;;;;;;;;;;;;;;;32.34;30.58;97831.53;5047396;28;19921;-84
2023/06/27 01:27:05;;;;;;;;;;;;;;;32.60;30.16;97838.09;5048197;28;19932;-84
2023/06/27 01:29:32;;;;;;;;;;;;;;;32.82;29.59;97841.19;5048746;28;19921;-83
2023/06/27 01:32:07;;;;;;;;;;;;;;;32.59;30.23;97843.00;5050016;28;19931;-83
2023/06/27 01:34:44;;;;;;;;;;;;;;;32.28;31.12;97845.66;5053093;28;19920;-82
2023/06/27 01:37:15;;;;;;;;;;;;;;;32.54;30.33;97832.34;5052595;28;19925;-83
2023/06/27 01:39:44;;;;;;;;;;;;;;;32.18;31.00;97826.41;5045301;28;19925;-83
2023/06/27 01:42:23;;;;;;;;;;;;;;;32.17;31.09;97836.97;5049047;28;19968;-83
2023/06/27 01:44:50;;;;;;;;;;;;;;;32.48;30.75;97842.03;5050775;28;20442;-83
2023/06/27 01:47:16;;;;;;;;;;;;;;;32.43;31.03;97849.22;5052975;28;19925;-83
2023/06/27 01:49:43;;;;;;;;;;;;;;;32.41;31.05;97846.09;5050551;28;20277;-83
2023/06/27 01:52:12;;;;;;;;;;;;;;;32.31;31.43;97853.19;5054337;28;19921;-83
2023/06/27 01:54:39;;;;;;;;;;;;;;;32.21;31.48;97853.84;5051641;28;19925;-83
2023/06/27 01:57:06;;;;;;;;;;;;;;;32.34;31.23;97846.53;5048450;28;19920;-83
2023/06/27 01:59:32;;;;;;;;;;;;;;;32.39;31.12;97856.41;5045381;28;19927;-84
2023/06/27 02:01:58;;;;;;;;;;;;;;;32.13;31.70;97858.34;5047766;28;20011;-84
2023/06/27 02:04:24;;;;;;;;;;;;;;;31.91;32.14;97862.38;5053462;28;19964;-83
2023/06/27 02:06:50;;;;;;;;;;;;;;;31.65;33.06;97878.47;5052993;28;20364;-83
2023/06/27 02:09:16;;;;;;;;;;;;;;;31.53;33.03;97851.19;5052555;28;20008;-83
2023/06/27 02:11:42;;;;;;;;;;;;;;;31.64;33.20;97848.53;5050787;28;20004;-84
2023/06/27 02:14:08;;;;;;;;;;;;;;;31.75;33.18;97839.41;5052145;28;19964;-84
2023/06/27 02:16:34;;;;;;;;;;;;;;;31.67;33.21;97833.34;5051130;28;19920;-84
2023/06/27 02:19:00;;;;;;;;;;;;;;;31.77;32.80;97837.66;5052592;28;19959;-84
2023/06/27 02:21:26;;;;;;;;;;;;;;;31.98;32.52;97829.97;5051556;28;19964;-84
2023/06/27 02:23:52;;;;;;;;;;;;;;;32.27;32.13;97826.25;5050052;28;19959;-83
2023/06/27 02:26:18;;;;;;;;;;;;;;;32.50;31.99;97828.16;5053165;28;19931;-83
2023/06/27 02:28:44;;;;;;;;;;;;;;;32.59;31.85;97831.63;5043068;28;19956;-82
2023/06/27 02:31:10;;;;;;;;;;;;;;;32.76;31.57;97820.44;5049236;28;19921;-82
2023/06/27 02:33:36;;;;;;;;;;;;;;;32.92;31.14;97817.00;5048055;28;19924;-83
2023/06/27 02:36:02;;;;;;;;;;;;;;;33.04;30.71;97803.72;5052746;28;19921;-82
2023/06/27 02:38:29;;;;;;;;;;;;;;;32.99;31.02;97802.34;5051927;28;19920;-82
2023/06/27 02:40:56;;;;;;;;;;;;;;;32.65;31.77;97774.84;5051964;28;20523;-82
2023/06/27 02:43:23;;;;;;;;;;;;;;;32.58;31.65;97766.75;5048114;28;20023;-82
2023/06/27 02:45:49;;;;;;;;;;;;;;;32.71;31.35;97770.78;5046338;28;19960;-82
2023/06/27 02:48:15;;;;;;;;;;;;;;;32.89;31.02;97783.88;5044727;28;20411;-82
2023/06/27 02:50:41;;;;;;;;;;;;;;;33.02;30.52;97790.00;5050108;28;19920;-81
2023/06/27 02:53:07;;;;;;;;;;;;;;;33.00;30.73;97775.44;5048046;28;20380;-82
2023/06/27 02:55:33;;;;;;;;;;;;;;;32.94;31.09;97774.59;5047375;28;20304;-83
2023/06/27 02:57:59;;;;;;;;;;;;;;;33.15;30.71;97770.44;5048607;28;19921;-82
2023/06/27 03:00:25;;;;;;;;;;;;;;;33.30;30.54;97768.22;5051176;28;19964;-83
2023/06/27 03:02:51;;;;;;;;;;;;;;;33.31;30.58;97769.81;5051992;28;19917;-83
2023/06/27 03:05:17;;;;;;;;;;;;;;;33.29;30.29;97763.84;5050756;28;19925;-83
2023/06/27 03:07:43;;;;;;;;;;;;;;;33.34;30.36;97771.66;5052511;28;19917;-83
2023/06/27 03:10:09;;;;;;;;;;;;;;;33.48;30.10;97764.25;5049071;28;19921;-83
2023/06/27 03:12:35;;;;;;;;;;;;;;;33.50;29.83;97749.50;5049581;28;19921;-81
2023/06/27 03:15:03;;;;;;;;;;;;;;;33.29;30.37;97749.63;5052417;28;19966;-82
2023/06/27 03:17:30;;;;;;;;;;;;;;;33.09;30.93;97769.63;5050331;28;19964;-82
2023/06/27 03:19:56;;;;;;;;;;;;;;;33.19;30.74;97768.16;5050329;28;20051;-82
2023/06/27 03:22:22;;;;;;;;;;;;;;;33.32;29.69;97765.69;5050446;28;19971;-83
2023/06/27 03:24:48;;;;;;;;;;;;;;;33.18;30.22;97762.97;5048477;28;19986;-82
2023/06/27 03:27:14;;;;;;;;;;;;;;;32.99;30.42;97771.03;5051052;28;19921;-82
2023/06/27 03:29:40;;;;;;;;;;;;;;;33.05;30.46;97774.75;5050337;28;20338;-82
2023/06/27 03:32:06;;;;;;;;;;;;;;;33.09;30.86;97769.63;5049035;28;19921;-82
2023/06/27 03:34:32;;;;;;;;;;;;;;;32.90;30.63;97767.59;5051321;28;19920;-82
2023/06/27 03:36:58;;;;;;;;;;;;;;;32.97;31.10;97767.13;5047381;28;19948;-82
2023/06/27 03:39:24;;;;;;;;;;;;;;;32.86;30.86;97767.03;5050285;28;20376;-82
2023/06/27 03:41:50;;;;;;;;;;;;;;;32.72;31.08;97766.63;5050250;28;19931;-82
2023/06/27 03:44:16;;;;;;;;;;;;;;;32.94;30.90;97776.66;5045822;28;19975;-82
2023/06/27 03:46:42;;;;;;;;;;;;;;;33.18;30.64;97765.81;5048392;28;19943;-82
2023/06/27 03:49:08;;;;;;;;;;;;;;;33.41;29.94;97759.03;5049061;28;19936;-81
2023/06/27 03:51:36;;;;;;;;;;;;;;;33.49;30.53;97753.66;5047162;28;19995;-81
2023/06/27 03:54:06;;;;;;;;;;;;;;;33.44;30.78;97760.88;5044040;28;19977;-81
2023/06/27 03:56:32;;;;;;;;;;;;;;;33.00;31.84;97781.13;5040711;28;19933;-81
2023/06/27 03:58:59;;;;;;;;;;;;;;;32.97;31.70;97785.00;5044017;28;19920;-81
2023/06/27 04:01:25;;;;;;;;;;;;;;;33.05;31.58;97786.13;5045734;28;20054;-80
2023/06/27 04:03:51;;;;;;;;;;;;;;;33.25;31.34;97776.75;5044329;28;20004;-81
2023/06/27 04:06:18;;;;;;;;;;;;;;;33.30;31.43;97784.56;5043530;28;19921;-82
2023/06/27 04:08:44;;;;;;;;;;;;;;;33.12;31.46;97779.19;5047868;28;19924;-83
2023/06/27 04:11:10;;;;;;;;;;;;;;;33.12;32.04;97785.66;5048770;28;20067;-82
2023/06/27 04:13:37;;;;;;;;;;;;;;;33.23;31.76;97793.53;5045574;28;19986;-84
2023/06/27 04:16:03;;;;;;;;;;;;;;;33.27;31.68;97796.94;5043278;28;19933;-84
2023/06/27 04:18:30;;;;;;;;;;;;;;;33.20;31.51;97775.41;5045391;28;19928;-83
2023/06/27 04:20:57;;;;;;;;;;;;;;;33.25;31.40;97794.59;5041771;28;20364;-80
2023/06/27 04:23:23;;;;;;;;;;;;;;;33.02;32.27;97784.31;5045728;28;19924;-80
2023/06/27 04:26:02;;;;;;;;;;;;;;;33.00;31.69;97780.38;5050985;28;19920;-83
2023/06/27 04:28:30;;;;;;;;;;;;;;;32.51;33.66;97787.84;5043113;28;19929;-81
2023/06/27 04:30:56;;;;;;;;;;;;;;;32.51;32.84;97781.41;5047459;28;19921;-86
2023/06/27 04:33:22;;;;;;;;;;;;;;;32.70;32.81;97772.03;5043067;28;19928;-83
2023/06/27 04:35:48;;;;;;;;;;;;;;;32.72;33.20;97772.31;5047752;28;19924;-86
2023/06/27 04:38:14;;;;;;;;;;;;;;;32.96;32.53;97760.66;5048785;28;19974;-84
2023/06/27 04:40:43;;;;;;;;;;;;;;;33.20;32.60;97758.34;5042632;28;19924;-89
2023/06/27 04:43:09;;;;;;;;;;;;;;;33.50;32.18;97753.13;5043352;28;19921;-88
2023/06/27 04:45:35;;;;;;;;;;;;;;;33.76;31.36;97753.06;5047102;28;20567;-88
2023/06/27 04:48:01;;;;;;;;;;;;;;;33.76;31.75;97755.94;5037572;28;19926;-89
2023/06/27 04:50:27;;;;;;;;;;;;;;;33.79;31.44;97761.41;5048557;28;20016;-89
2023/06/27 04:52:53;;;;;;;;;;;;;;;33.71;31.26;97750.97;5044882;28;19927;-88
2023/06/27 04:55:19;;;;;;;;;;;;;;;33.66;32.02;97754.56;5046300;28;20424;-87
2023/06/27 04:57:45;;;;;;;;;;;;;;;33.83;31.59;97759.09;5050560;28;19939;-86
2023/06/27 05:00:11;;;;;;;;;;;;;;;33.94;31.81;97752.66;5044888;28;19921;-86
2023/06/27 05:02:38;;;;;;;;;;;;;;;33.71;32.55;97753.81;5041554;28;19924;-84
2023/06/27 05:05:04;;;;;;;;;;;;;;;33.75;32.76;97746.59;5051242;28;19928;-85
2023/06/27 05:07:30;;;;;;;;;;;;;;;33.92;32.80;97747.47;5049204;28;19921;-85
2023/06/27 05:09:56;;;;;;;;;;;;;;;33.86;32.67;97758.06;5040776;28;20438;-90
2023/06/27 05:12:22;;;;;;;;;;;;;;;33.53;32.25;97755.00;5048570;28;19931;-84
2023/06/27 05:14:48;;;;;;;;;;;;;;;33.34;32.49;97760.25;5048761;28;20312;-85
2023/06/27 05:17:14;;;;;;;;;;;;;;;33.35;33.22;97761.06;5041724;28;19921;-86
2023/06/27 05:19:40;;;;;;;;;;;;;;;33.56;32.71;97750.38;5049385;28;19960;-87
2023/06/27 05:22:06;;;;;;;;;;;;;;;33.75;32.54;97748.69;5052157;28;19917;-86
2023/06/27 05:24:33;;;;;;;;;;;;;;;33.55;32.50;97748.78;5052290;28;19924;-87
2023/06/27 05:26:59;;;;;;;;;;;;;;;32.89;33.58;97763.16;5049222;28;19921;-86
2023/06/27 05:29:26;;;;;;;;;;;;;;;32.64;33.80;97750.53;5048738;28;19925;-87
2023/06/27 05:31:52;;;;;;;;;;;;;;;32.74;34.58;97760.47;5052458;28;19928;-86
2023/06/27 05:34:18;;;;;;;;;;;;;;;32.79;33.96;97756.91;5052532;28;20274;-86
2023/06/27 05:36:44;;;;;;;;;;;;;;;32.50;34.20;97757.88;5041407;28;19921;-87
2023/06/27 05:39:10;;;;;;;;;;;;;;;32.51;34.74;97758.66;5052645;28;19924;-86
2023/06/27 05:41:36;;;;;;;;;;;;;;;32.70;33.86;97754.19;5052694;28;19924;-85
2023/06/27 05:44:02;;;;;;;;;;;;;;;32.51;34.49;97756.56;5052417;28;19920;-85
2023/06/27 05:46:28;;;;;;;;;;;;;;;32.41;34.67;97758.00;5052462;28;19968;-85
2023/06/27 05:48:54;;;;;;;;;;;;;;;32.82;33.78;97764.41;5051564;28;20373;-84
2023/06/27 05:51:22;;;;;;;;;;;;;;;32.63;34.01;97769.63;5051763;28;19927;-82
2023/06/27 05:53:48;;;;;;;;;;;;;;;32.29;34.87;97776.19;5039440;28;20305;-84
2023/06/27 05:56:14;;;;;;;;;;;;;;;32.18;35.94;97778.88;5053007;28;19917;-85
2023/06/27 05:58:40;;;;;;;;;;;;;;;31.91;35.52;97777.19;5052376;28;19921;-84
2023/06/27 06:01:06;;;;;;;;;;;;;;;31.94;36.43;97781.09;5052960;28;20327;-84
2023/06/27 06:03:32;;;;;;;;;;;;;;;32.05;35.95;97772.75;5052033;28;19920;-84
2023/06/27 06:05:58;;;;;;;;;;;;;;;31.06;37.70;97775.56;5052697;28;19921;-84
2023/06/27 06:08:24;;;;;;;;;;;;;;;31.63;36.68;97775.22;5052535;28;19925;-84
2023/06/27 06:10:50;;;;;;;;;;;;;;;31.80;36.65;97779.09;5047998;28;19917;-84
2023/06/27 06:13:16;;;;;;;;;;;;;;;31.27;37.15;97776.44;5052412;28;19973;-85
2023/06/27 06:15:42;;;;;;;;;;;;;;;31.71;38.69;97774.34;5055758;28;19921;-85
2023/06/27 06:18:08;;;;;;;;;;;;;;;31.57;36.05;97785.72;5055630;28;20062;-85
2023/06/27 06:20:34;;;;;;;;;;;;;;;31.15;37.85;97788.88;5046224;28;19987;-86
2023/06/27 06:23:00;;;;;;;;;;;;;;;30.77;38.89;97792.53;5052393;28;19940;-86
2023/06/27 06:25:27;;;;;;;;;;;;;;;30.82;38.94;97802.41;5046052;28;20016;-86
2023/06/27 06:27:53;;;;;;;;;;;;;;;30.26;42.98;97812.59;5043728;28;19917;-85
2023/06/27 06:30:19;;;;;;;;;;;;;;;30.42;41.27;97819.91;5051335;28;19928;-85
2023/06/27 06:32:45;;;;;;;;;;;;;;;29.93;42.09;97814.69;5055059;28;19971;-86
2023/06/27 06:35:11;;;;;;;;;;;;;;;29.71;42.31;97828.31;5054015;28;19920;-86
2023/06/27 06:37:37;;;;;;;;;;;;;;;30.37;37.83;97831.91;5055840;28;19917;-84
2023/06/27 06:40:03;;;;;;;;;;;;;;;31.16;36.06;97839.41;5055830;28;19931;-85
2023/06/27 06:42:29;;;;;;;;;;;;;;;30.62;39.79;97845.59;5055652;28;19924;-86
2023/06/27 06:44:55;;;;;;;;;;;;;;;31.34;37.76;97844.13;5045102;28;19929;-86
2023/06/27 06:47:21;;;;;;;;;;;;;;;31.00;37.75;97847.63;5053909;28;20301;-85
2023/06/27 06:49:47;;;;;;;;;;;;;;;31.52;35.63;97851.69;5055632;28;19917;-85
2023/06/27 06:52:13;;;;;;;;;;;;;;;31.65;35.15;97852.19;5055473;28;19923;-85
2023/06/27 06:54:43;;;;;;;;;;;;;;;31.37;35.38;97865.84;5055279;28;19928;-85
2023/06/27 06:57:10;;;;;;;;;;;;;;;31.38;35.12;97865.38;5055285;28;19932;-86
2023/06/27 06:59:36;;;;;;;;;;;;;;;30.59;37.85;97869.22;5055707;28;19924;-87
2023/06/27 07:02:02;;;;;;;;;;;;;;;29.51;38.27;97874.13;5041530;28;20377;-87
2023/06/27 07:04:28;;;;;;;;;;;;;;;31.01;35.62;97872.69;5035721;28;19944;-85
2023/06/27 07:06:54;;;;;;;;;;;;;;;30.83;35.62;97884.13;5050248;28;20372;-86
2023/06/27 07:09:20;;;;;;;;;;;;;;;30.44;35.58;97886.16;5046391;28;19928;-85
2023/06/27 07:11:48;;;;;;;;;;;;;;;30.21;35.95;97883.28;5034642;28;19921;-85
2023/06/27 07:14:16;;;;;;;;;;;;;;;30.66;34.38;97880.19;5038176;28;19966;-85
2023/06/27 07:16:42;;;;;;;;;;;;;;;30.76;35.87;97888.13;5047876;28;19978;-86
2023/06/27 07:19:08;;;;;;;;;;;;;;;30.34;34.47;97893.13;5050914;28;19929;-85
2023/06/27 07:21:34;;;;;;;;;;;;;;;30.04;38.05;97897.03;5042030;28;19929;-86
2023/06/27 07:24:01;;;;;;;;;;;;;;;31.06;34.48;97891.06;5042536;28;19928;-85
2023/06/27 07:26:27;;;;;;;;;;;;;;;31.08;36.64;97888.53;5050196;28;19974;-87
2023/06/27 07:28:53;;;;;;;;;;;;;;;31.09;37.67;97893.69;5054482;28;19925;-86
2023/06/27 07:31:19;;;;;;;;;;;;;;;32.40;32.76;97898.53;5055012;28;19924;-87
2023/06/27 07:33:45;;;;;;;;;;;;;;;32.29;32.06;97894.75;5054802;28;20357;-86
2023/06/27 07:36:11;;;;;;;;;;;;;;;32.49;31.95;97895.56;5040323;28;19921;-87
2023/06/27 07:38:38;;;;;;;;;;;;;;;32.12;31.71;97890.88;5044685;28;19960;-87
2023/06/27 07:41:04;;;;;;;;;;;;;;;32.06;32.80;97894.44;5053377;28;19924;-86
2023/06/27 07:43:30;;;;;;;;;;;;;;;31.92;34.09;97898.06;5040670;28;20304;-86
2023/06/27 07:45:56;;;;;;;;;;;;;;;32.36;32.22;97897.16;5054211;28;19927;-87
2023/06/27 07:48:22;;;;;;;;;;;;;;;32.01;35.00;97902.84;5053720;28;20019;-86
2023/06/27 07:50:48;;;;;;;;;;;;;;;31.92;32.29;97898.06;5054578;28;20287;-87
2023/06/27 07:53:14;;;;;;;;;;;;;;;32.14;34.51;97894.78;5042710;28;19925;-86
2023/06/27 07:55:41;;;;;;;;;;;;;;;31.71;33.02;97889.94;5049852;28;19917;-86
2023/06/27 07:58:07;;;;;;;;;;;;;;;32.46;32.86;97893.72;5053883;28;19920;-86
2023/06/27 08:00:33;;;;;;;;;;;;;;;32.41;32.00;97893.63;5052570;28;20471;-86
2023/06/27 08:02:59;;;;;;;;;;;;;;;32.76;30.87;97902.91;5054419;28;19962;-86
2023/06/27 08:05:28;;;;;;;;;;;;;;;32.61;33.82;97905.03;5054170;28;19946;-87
2023/06/27 08:07:54;;;;;;;;;;;;;;;32.57;31.76;97905.25;5053082;28;19936;-86
2023/06/27 08:10:20;;;;;;;;;;;;;;;31.94;34.31;97912.53;5043997;28;19929;-87
2023/06/27 08:12:46;;;;;;;;;;;;;;;32.81;30.89;97907.91;5036451;28;20339;-87
2023/06/27 08:15:12;;;;;;;;;;;;;;;33.00;30.16;97908.38;5040442;28;20012;-86
2023/06/27 08:17:38;;;;;;;;;;;;;;;33.34;29.90;97905.44;5053710;28;20432;-86
2023/06/27 08:20:05;;;;;;;;;;;;;;;33.30;29.67;97904.84;5040941;28;19978;-87
2023/06/27 08:22:31;;;;;;;;;;;;;;;33.25;29.86;97904.81;5042711;28;19995;-86
2023/06/27 08:24:57;;;;;;;;;;;;;;;33.15;29.37;97906.25;5051132;28;20376;-86
2023/06/27 08:27:23;;;;;;;;;;;;;;;32.84;32.92;97914.66;5037066;28;19931;-86
2023/06/27 08:29:50;;;;;;;;;;;;;;;32.50;31.58;97904.91;5052089;28;19921;-86
2023/06/27 08:32:16;;;;;;;;;;;;;;;32.60;30.38;97915.63;5053966;28;19917;-86
2023/06/27 08:34:42;;;;;;;;;;;;;;;32.96;31.38;97919.19;5053126;28;19928;-86
2023/06/27 08:37:08;;;;;;;;;;;;;;;32.42;32.12;97912.22;5053032;28;19925;-86
2023/06/27 08:39:34;;;;;;;;;;;;;;;32.81;30.77;97915.66;5052893;28;20360;-85
2023/06/27 08:42:01;;;;;;;;;;;;;;;32.96;32.16;97910.63;5050654;28;19920;-86
2023/06/27 08:44:27;;;;;;;;;;;;;;;33.08;31.46;97909.53;5051789;28;19952;-86
2023/06/27 08:46:55;;;;;;;;;;;;;;;33.43;30.47;97905.25;5052675;28;19924;-86
2023/06/27 08:49:26;;;;;;;;;;;;;;;33.18;32.99;97900.34;5039671;28;19928;-86
2023/06/27 08:51:54;;;;;;;;;;;;;;;33.60;30.40;97916.84;5053294;28;19940;-85
2023/06/27 08:54:30;;;;;;;;;;;;;;;33.42;29.87;97912.22;5053205;28;20007;-86
2023/06/27 08:56:57;;;;;;;;;;;;;;;32.99;31.17;97921.81;5053557;28;19975;-85
2023/06/27 08:59:24;;;;;;;;;;;;;;;32.60;32.76;97900.66;5052690;28;19956;-86
2023/06/27 09:01:51;;;;;;;;;;;;;;;32.26;36.73;97902.19;5043183;28;19925;-86
2023/06/27 09:04:17;;;;;;;;;;;;;;;32.85;30.77;97907.66;5047177;28;20323;-86
2023/06/27 09:06:45;;;;;;;;;;;;;;;32.78;30.30;97903.19;5044942;28;19927;-86
2023/06/27 09:09:11;;;;;;;;;;;;;;;32.43;32.08;97902.44;5045111;28;19956;-86
2023/06/27 09:11:37;;;;;;;;;;;;;;;32.68;31.70;97905.41;5051918;28;19960;-86
2023/06/27 09:14:04;;;;;;;;;;;;;;;32.80;30.69;97909.16;5051563;28;19920;-86
2023/06/27 09:16:30;;;;;;;;;;;;;;;32.94;32.33;97922.53;5036944;28;19925;-83
2023/06/27 09:18:56;;;;;;;;;;;;;;;32.65;31.03;97911.31;5042779;28;19927;-86
2023/06/27 09:21:22;;;;;;;;;;;;;;;32.47;32.04;97917.22;5050044;28;19917;-85
2023/06/27 09:23:49;;;;;;;;;;;;;;;31.54;39.67;97920.88;5049497;28;19925;-87
2023/06/27 09:26:15;;;;;;;;;;;;;;;31.25;33.01;97935.03;5049933;28;19925;-85
2023/06/27 09:28:44;;;;;;;;;;;;;;;32.35;31.71;97924.81;5051277;28;19917;-86
2023/06/27 09:31:11;;;;;;;;;;;;;;;31.30;32.86;97932.28;5047853;28;20440;-85
2023/06/27 09:33:37;;;;;;;;;;;;;;;31.18;32.57;97936.16;5041376;28;19913;-86
2023/06/27 09:36:03;;;;;;;;;;;;;;;30.82;38.42;97944.94;5040692;28;19925;-86
2023/06/27 09:38:32;;;;;;;;;;;;;;;30.64;34.56;97928.06;5054397;28;19925;-86
2023/06/27 09:41:08;;;;;;;;;;;;;;;32.06;33.58;97936.25;5053066;28;20331;-86
2023/06/27 09:43:35;;;;;;;;;;;;;;;31.07;33.63;97938.00;5053391;28;20334;-87
2023/06/27 09:46:02;;;;;;;;;;;;;;;32.02;32.39;97933.59;5049451;28;19928;-86
2023/06/27 09:48:29;;;;;;;;;;;;;;;32.09;31.88;97940.97;5054108;28;19929;-86
2023/06/27 09:51:02;;;;;;;;;;;;;;;31.99;33.05;97939.50;5056058;28;19935;-85
2023/06/27 09:53:29;;;;;;;;;;;;;;;32.40;31.17;97941.16;5054698;28;19929;-86
2023/06/27 09:55:56;;;;;;;;;;;;;;;31.32;42.34;97946.75;5056151;28;19924;-86
2023/06/27 09:58:29;;;;;;;;;;;;;;;31.79;33.79;97939.38;5056258;28;19964;-86
2023/06/27 10:01:01;;;;;;;;;;;;;;;31.55;34.35;97939.50;5058178;28;20316;-85
2023/06/27 10:03:28;;;;;;;;;;;;;;;30.25;39.99;97949.81;5056196;28;19964;-86
2023/06/27 10:05:54;;;;;;;;;;;;;;;30.18;38.96;97938.84;5044148;28;19946;-85
2023/06/27 10:08:20;;;;;;;;;;;;;;;31.03;32.52;97946.69;5047671;28;19921;-85
2023/06/27 10:10:46;;;;;;;;;;;;;;;31.09;34.12;97941.13;5044767;28;19921;-85
2023/06/27 10:13:12;;;;;;;;;;;;;;;30.54;40.99;97938.69;5056171;28;19928;-87
2023/06/27 10:15:38;;;;;;;;;;;;;;;30.34;37.84;97946.97;5054054;28;19936;-86
2023/06/27 10:18:04;;;;;;;;;;;;;;;31.16;32.74;97952.09;5038064;28;19925;-86
2023/06/27 10:20:30;;;;;;;;;;;;;;;31.62;32.75;97953.28;5035765;28;19917;-86
2023/06/27 10:22:57;;;;;;;;;;;;;;;31.84;31.75;97938.69;5039070;28;19921;-86
2023/06/27 10:25:25;;;;;;;;;;;;;;;32.55;33.43;97956.16;5034437;28;19948;-86
2023/06/27 10:28:03;;;;;;;;;;;;;;;32.95;29.76;97946.06;5038450;28;19928;-86
2023/06/27 10:30:29;;;;;;;;;;;;;;;32.72;33.63;97939.31;5039748;28;20020;-87
2023/06/27 10:33:14;;;;;;;;;;;;;;;32.95;27.80;97941.19;5051520;28;20300;-87
2023/06/27 10:35:49;;;;;;;;;;;;;;;31.95;33.10;97942.50;5048989;28;19921;-87
2023/06/27 10:38:17;;;;;;;;;;;;;;;32.06;37.69;97939.88;5035818;28;19925;-87
2023/06/27 10:41:03;;;;;;;;;;;;;;;32.41;29.76;97941.94;5049337;28;19921;-86
2023/06/27 10:43:36;;;;;;;;;;;;;;;32.16;29.58;97936.91;5036027;28;19917;-86
2023/06/27 10:46:10;;;;;;;;;;;;;;;32.27;29.84;97934.25;5035155;28;20293;-85
2023/06/27 10:48:59;;;;;;;;;;;;;;;33.23;26.88;97933.78;5037101;28;19921;-87
2023/06/27 10:51:41;;;;;;;;;;;;;;;33.43;27.92;97933.72;5049286;28;20104;-87
2023/06/27 10:54:07;;;;;;;;;;;;;;;33.96;27.43;97940.97;5053397;28;20798;-86
2023/06/27 10:56:37;;;;;;;;;;;;;;;32.58;39.62;97940.94;5053812;28;20005;-87
2023/06/27 10:59:04;;;;;;;;;;;;;;;32.37;32.85;97936.44;5047621;28;19925;-87
2023/06/27 11:01:30;;;;;;;;;;;;;;;32.82;36.46;97935.03;5052745;28;19932;-87
2023/06/27 11:03:57;;;;;;;;;;;;;;;33.56;26.64;97939.03;5053880;28;20262;-88
2023/06/27 11:06:39;;;;;;;;;;;;;;;33.56;25.63;97941.13;5053779;28;19939;-88
2023/06/27 11:09:08;;;;;;;;;;;;;;;33.49;27.00;97933.81;5051996;28;20015;-88
2023/06/27 11:11:34;;;;;;;;;;;;;;;33.12;28.61;97932.84;5037190;28;20373;-87
2023/06/27 11:14:07;;;;;;;;;;;;;;;33.41;26.99;97924.13;5033535;28;19921;-87
2023/06/27 11:16:34;;;;;;;;;;;;;;;32.93;26.57;97926.66;5047628;28;20337;-86
2023/06/27 11:19:03;;;;;;;;;;;;;;;33.29;28.19;97928.91;5036745;28;20427;-86
2023/06/27 11:21:30;;;;;;;;;;;;;;;34.01;27.51;97934.53;5034813;28;20401;-87
2023/06/27 11:23:57;;;;;;;;;;;;;;;33.75;28.39;97936.66;5048998;28;19921;-87
2023/06/27 11:26:23;;;;;;;;;;;;;;;34.24;27.70;97922.03;5053249;28;19923;-86
2023/06/27 11:28:49;;;;;;;;;;;;;;;34.87;26.65;97916.22;5052998;28;19927;-87
2023/06/27 11:31:16;;;;;;;;;;;;;;;35.30;25.19;97911.97;5053548;28;20023;-86
2023/06/27 11:33:42;;;;;;;;;;;;;;;35.16;25.26;97904.41;5044774;28;19925;-87
2023/06/27 11:36:09;;;;;;;;;;;;;;;34.19;28.84;97911.41;5051192;28;19925;-86
2023/06/27 11:38:35;;;;;;;;;;;;;;;34.30;26.26;97917.19;5052566;28;19979;-87
2023/06/27 11:41:02;;;;;;;;;;;;;;;33.81;26.46;97911.84;5049866;28;20388;-86
2023/06/27 11:43:28;;;;;;;;;;;;;;;34.06;28.09;97908.97;5043102;28;19947;-87
2023/06/27 11:45:55;;;;;;;;;;;;;;;34.05;30.05;97907.41;5034170;28;19921;-87
2023/06/27 11:48:21;;;;;;;;;;;;;;;32.87;32.61;97916.47;5052661;28;19933;-86
2023/06/27 11:50:55;;;;;;;;;;;;;;;33.58;25.55;97907.25;5041013;28;19967;-88
2023/06/27 11:53:26;;;;;;;;;;;;;;;34.45;26.11;97902.75;5034008;28;19917;-88
2023/06/27 11:55:53;;;;;;;;;;;;;;;34.06;27.96;97896.78;5035665;28;19964;-87
2023/06/27 11:58:29;;;;;;;;;;;;;;;34.31;27.29;97895.16;5037586;28;19928;-88
2023/06/27 12:00:59;;;;;;;;;;;;;;;34.47;27.97;97886.69;5040107;28;19921;-87
2023/06/27 12:03:26;;;;;;;;;;;;;;;34.69;25.85;97886.84;5050383;28;20380;-89
2023/06/27 12:05:54;;;;;;;;;;;;;;;34.33;26.17;97869.78;5050328;28;20019;-88
2023/06/27 12:08:20;;;;;;;;;;;;;;;33.44;29.79;97881.19;5045877;28;19960;-90
2023/06/27 12:10:50;;;;;;;;;;;;;;;34.49;25.28;97869.88;5049980;28;19979;-86
2023/06/27 12:13:16;;;;;;;;;;;;;;;34.25;24.49;97875.16;5046888;28;20296;-88
2023/06/27 12:15:44;;;;;;;;;;;;;;;34.90;25.69;97872.38;5050628;28;20016;-87
2023/06/27 12:18:19;;;;;;;;;;;;;;;35.42;26.00;97870.72;5047968;28;19925;-90
2023/06/27 12:20:45;;;;;;;;;;;;;;;34.01;30.59;97861.25;5052881;28;20280;-91
2023/06/27 12:23:11;;;;;;;;;;;;;;;34.24;24.89;97847.19;5052610;28;19920;-85
2023/06/27 12:25:41;;;;;;;;;;;;;;;33.99;25.21;97840.25;5047270;28;19925;-87
2023/06/27 12:28:07;;;;;;;;;;;;;;;34.05;25.86;97843.94;5050675;28;19921;-88
2023/06/27 12:30:33;;;;;;;;;;;;;;;34.37;25.59;97848.28;5045921;28;19924;-90
2023/06/27 12:33:00;;;;;;;;;;;;;;;34.55;24.73;97839.31;5052354;28;19928;-89
2023/06/27 12:35:26;;;;;;;;;;;;;;;34.08;25.18;97840.84;5044216;28;19921;-88
2023/06/27 12:37:52;;;;;;;;;;;;;;;33.35;30.54;97847.19;5044550;28;19929;-89
2023/06/27 12:40:22;;;;;;;;;;;;;;;34.12;26.11;97840.63;5043168;28;19956;-88
2023/06/27 12:42:52;;;;;;;;;;;;;;;34.52;23.62;97836.66;5038606;28;19925;-90
2023/06/27 12:45:18;;;;;;;;;;;;;;;34.20;21.81;97833.16;5041348;28;20020;-88
2023/06/27 12:47:45;;;;;;;;;;;;;;;33.87;29.77;97830.84;5039038;28;19932;-92